Time;durP1;ratioP1;P1;durP2;ratioP2;P2;SDS_P1;SDS_P2;PMS_P1;PMS_P2;Temp;Humidity;BMP_temperature;BMP_pressure;BME280_temperature;BME280_humidity;BME280_pressure;Samples;Min_cycle;Max_cycle;Signal;HPM_P1;HPM_P2
2022/09/15 00:01:49;;;;;;;0.10;0.10;;;;;;;18.24;59.45;100800.47;5118162;27;20031;-83
2022/09/15 00:04:15;;;;;;;0.00;0.00;;;;;;;18.21;59.67;100806.88;5120412;27;20408;-82
2022/09/15 00:06:42;;;;;;;0.10;0.10;;;;;;;18.17;59.32;100807.13;5112459;27;20384;-83
2022/09/15 00:09:08;;;;;;;0.10;0.10;;;;;;;18.13;59.58;100809.13;5109568;27;20031;-83
2022/09/15 00:11:36;;;;;;;0.10;0.10;;;;;;;18.08;60.03;100803.97;5110882;27;20051;-82
2022/09/15 00:14:04;;;;;;;0.10;0.10;;;;;;;18.04;60.01;100797.03;5112582;27;20169;-81
2022/09/15 00:16:31;;;;;;;0.20;0.20;;;;;;;17.97;59.94;100795.63;5117295;27;20031;-82
2022/09/15 00:18:59;;;;;;;0.00;0.00;;;;;;;17.92;59.95;100803.88;5113476;27;20038;-82
2022/09/15 00:21:30;;;;;;;0.10;0.10;;;;;;;17.89;59.91;100803.16;5119788;27;20471;-83
2022/09/15 00:23:58;;;;;;;0.10;0.10;;;;;;;17.84;60.51;100810.56;5111493;27;20027;-82
2022/09/15 00:26:26;;;;;;;0.00;0.00;;;;;;;17.79;60.31;100803.66;5115298;27;20370;-82
2022/09/15 00:28:53;;;;;;;0.40;0.40;;;;;;;17.77;60.50;100802.00;5111985;27;20070;-83
2022/09/15 00:31:22;;;;;;;0.03;0.03;;;;;;;17.75;61.15;100802.03;5113704;28;20016;-83
2022/09/15 00:33:50;;;;;;;0.10;0.10;;;;;;;17.75;61.51;100802.03;5117951;27;20396;-83
2022/09/15 00:36:17;;;;;;;0.00;0.00;;;;;;;17.76;60.70;100793.06;5116560;27;20027;-81
2022/09/15 00:38:43;;;;;;;0.00;0.00;;;;;;;17.85;60.66;100794.41;5121728;27;20065;-83
2022/09/15 00:41:13;;;;;;;0.00;0.00;;;;;;;17.92;60.93;100792.31;5114513;27;20038;-82
2022/09/15 00:44:04;;;;;;;0.10;0.10;;;;;;;18.00;60.59;100799.97;5120930;27;20113;-82
2022/09/15 00:46:35;;;;;;;0.20;0.20;;;;;;;18.03;60.63;100795.31;5113867;27;20042;-82
2022/09/15 00:49:25;;;;;;;0.10;0.10;;;;;;;18.15;60.84;100796.47;5105209;27;20089;-83
2022/09/15 00:52:01;;;;;;;0.00;0.00;;;;;;;18.16;60.88;100800.91;5107608;27;20024;-82
2022/09/15 00:57:20;;;;;;;0.00;0.00;;;;;;;18.29;60.58;100802.94;5072453;27;2089014;-80
2022/09/15 00:59:48;;;;;;;0.03;0.03;;;;;;;18.33;60.29;100800.00;5120758;27;20081;-82
2022/09/15 01:02:20;;;;;;;0.10;0.10;;;;;;;18.39;60.37;100805.06;5122562;28;20059;-81
2022/09/15 01:04:46;;;;;;;0.10;0.10;;;;;;;18.43;60.70;100803.94;5115650;28;20415;-83
2022/09/15 01:07:15;;;;;;;0.10;0.10;;;;;;;18.47;60.98;100799.28;5104802;28;20043;-83
2022/09/15 01:09:50;;;;;;;0.08;0.08;;;;;;;18.52;60.81;100799.03;5100776;28;20035;-81
2022/09/15 01:12:17;;;;;;;0.10;0.10;;;;;;;18.54;60.33;100806.03;5102261;28;20081;-82
2022/09/15 01:14:43;;;;;;;0.10;0.10;;;;;;;18.58;60.07;100801.38;5101742;28;20484;-82
2022/09/15 01:20:51;;;;;;;0.00;0.00;;;;;;;18.74;60.27;100807.63;5053252;27;20190;-81
2022/09/15 01:23:55;;;;;;;0.10;0.10;;;;;;;18.79;60.01;100811.88;5007871;28;20407;-83
2022/09/15 01:29:49;;;;;;;0.05;0.05;;;;;;;18.74;59.55;100813.00;5145641;27;20431;-81
2022/09/15 01:33:12;;;;;;;0.00;0.00;;;;;;;18.64;59.75;100805.53;5146361;27;20119;-80
2022/09/15 01:35:53;;;;;;;0.10;0.10;;;;;;;18.64;59.48;100806.41;5143368;27;20099;-80
2022/09/15 01:38:36;;;;;;;0.10;0.10;;;;;;;18.61;59.49;100805.72;5139623;27;20029;-83
2022/09/15 01:41:14;;;;;;;0.10;0.10;;;;;;;18.58;59.26;100804.06;5140366;27;20052;-83
2022/09/15 01:43:48;;;;;;;0.10;0.10;;;;;;;18.53;59.59;100808.78;5142476;27;20039;-83
2022/09/15 01:46:16;;;;;;;0.10;0.10;;;;;;;18.54;59.25;100806.03;5144661;27;20034;-83
2022/09/15 01:48:45;;;;;;;0.10;0.10;;;;;;;18.57;59.59;100805.00;5141766;27;20106;-82
2022/09/15 01:51:12;;;;;;;0.77;0.77;;;;;;;18.63;59.60;100810.03;5141789;27;20094;-82
2022/09/15 01:53:39;;;;;;;0.10;0.10;;;;;;;18.69;59.33;100815.06;5140484;27;20031;-82
2022/09/15 01:56:08;;;;;;;0.10;0.10;;;;;;;18.76;59.18;100816.44;5148245;27;20027;-81
2022/09/15 01:58:37;;;;;;;0.10;0.10;;;;;;;18.80;59.32;100822.53;5145967;27;20391;-83
2022/09/15 02:01:12;;;;;;;0.10;0.10;;;;;;;18.83;59.15;100824.16;5145363;27;20031;-81
2022/09/15 02:03:49;;;;;;;0.10;0.10;;;;;;;18.89;59.16;100815.78;5142527;27;20373;-82
2022/09/15 02:06:23;;;;;;;0.08;0.08;;;;;;;18.90;58.83;100813.06;5146707;27;20487;-82
2022/09/15 02:08:57;;;;;;;0.00;0.00;;;;;;;18.93;59.01;100822.75;5141473;27;20019;-81
2022/09/15 02:11:26;;;;;;;0.10;0.10;;;;;;;18.90;59.64;100817.50;5146866;27;20023;-82
2022/09/15 02:20:19;;;;;;;0.10;0.10;;;;;;;19.03;59.53;100823.13;5071395;28;20398;-81
2022/09/15 02:22:53;;;;;;;0.10;0.10;;;;;;;19.03;59.63;100815.06;5088281;28;20035;-81
2022/09/15 02:25:29;;;;;;;0.95;0.40;;;;;;;19.05;59.69;100819.41;5085981;28;20486;-81
2022/09/15 02:28:04;;;;;;;0.10;0.10;;;;;;;19.03;59.58;100823.13;5088825;28;20035;-81
2022/09/15 02:30:35;;;;;;;0.10;0.10;;;;;;;19.04;59.50;100820.34;5080210;28;20028;-81
2022/09/15 02:33:05;;;;;;;0.00;0.00;;;;;;;19.07;59.53;100820.16;5089571;28;20422;-81
2022/09/15 02:35:35;;;;;;;0.00;0.00;;;;;;;19.10;59.41;100831.69;5086620;28;20111;-81
2022/09/15 02:38:05;;;;;;;0.03;0.03;;;;;;;19.08;59.75;100823.72;5086681;28;20040;-80
2022/09/15 02:40:32;;;;;;;0.03;0.03;;;;;;;19.08;59.59;100821.03;5087626;28;20043;-83
2022/09/15 02:43:00;;;;;;;0.20;0.20;;;;;;;19.08;59.71;100816.53;5090662;28;20044;-84
2022/09/15 02:45:28;;;;;;;0.08;0.08;;;;;;;19.08;59.82;100824.56;5090794;28;20112;-83
2022/09/15 02:47:56;;;;;;;0.10;0.10;;;;;;;19.08;59.58;100826.41;5088767;28;20040;-84
2022/09/15 02:50:26;;;;;;;0.15;0.15;;;;;;;19.05;59.83;100822.06;5077090;28;20021;-84
2022/09/15 02:52:54;;;;;;;0.00;0.00;;;;;;;19.03;59.88;100829.34;5085641;28;20068;-84
2022/09/15 02:55:21;;;;;;;0.10;0.10;;;;;;;19.01;59.61;100825.88;5083470;28;20024;-84
2022/09/15 02:57:47;;;;;;;0.00;0.00;;;;;;;18.97;59.79;100818.94;5085313;28;20040;-83
2022/09/15 03:00:16;;;;;;;0.00;0.00;;;;;;;18.93;59.75;100822.75;5082721;28;20020;-83
2022/09/15 03:02:47;;;;;;;0.00;0.00;;;;;;;18.89;60.00;100816.66;5081105;28;20066;-83
2022/09/15 03:05:18;;;;;;;0.10;0.10;;;;;;;18.88;59.58;100820.28;5076923;28;20541;-83
2022/09/15 03:07:45;;;;;;;0.20;0.20;;;;;;;18.81;59.77;100826.09;5085356;28;20409;-83
2022/09/15 03:10:14;;;;;;;0.10;0.10;;;;;;;18.79;59.86;100831.56;5079957;28;20112;-84
2022/09/15 03:12:48;;;;;;;0.10;0.10;;;;;;;18.80;59.88;100835.09;5080189;28;20513;-83
2022/09/15 03:15:17;;;;;;;0.10;0.10;;;;;;;18.74;59.93;100828.22;5081469;28;20033;-83
2022/09/15 03:17:45;;;;;;;0.10;0.10;;;;;;;18.72;60.04;100831.00;5090245;28;20040;-83
2022/09/15 03:20:15;;;;;;;0.10;0.10;;;;;;;18.72;60.08;100825.63;5081526;28;20032;-83
2022/09/15 03:22:42;;;;;;;0.10;0.10;;;;;;;18.70;59.97;100826.66;5081827;28;20097;-83
2022/09/15 03:25:09;;;;;;;0.00;0.00;;;;;;;18.68;60.06;100833.91;5083105;28;20028;-83
2022/09/15 03:27:36;;;;;;;0.00;0.00;;;;;;;18.65;60.08;100834.97;5076805;28;20052;-82
2022/09/15 03:30:04;;;;;;;0.10;0.10;;;;;;;18.64;60.07;100835.94;5064827;28;20032;-83
2022/09/15 03:32:30;;;;;;;0.10;0.10;;;;;;;18.59;60.09;100836.16;5073969;28;20112;-83
2022/09/15 03:34:57;;;;;;;0.10;0.10;;;;;;;18.57;60.13;100842.56;5066396;28;20032;-83
2022/09/15 03:37:23;;;;;;;0.00;0.00;;;;;;;18.57;60.23;100838.06;5072849;28;20505;-84
2022/09/15 03:39:49;;;;;;;0.10;0.10;;;;;;;18.55;60.21;100833.72;5072809;28;20044;-84
2022/09/15 03:42:15;;;;;;;0.10;0.10;;;;;;;18.55;60.08;100844.47;5070548;28;20116;-83
2022/09/15 03:44:41;;;;;;;0.10;0.10;;;;;;;18.54;60.26;100846.28;5069301;28;20603;-83
2022/09/15 03:47:08;;;;;;;0.00;0.00;;;;;;;18.54;60.40;100848.09;5068176;28;20056;-82
2022/09/15 03:49:34;;;;;;;0.00;0.00;;;;;;;18.55;60.36;100849.81;5068766;28;20032;-83
2022/09/15 03:52:00;;;;;;;0.10;0.10;;;;;;;18.56;60.43;100846.19;5073538;28;20604;-83
2022/09/15 03:54:26;;;;;;;0.10;0.10;;;;;;;18.56;60.59;100843.50;5078017;28;20033;-83
2022/09/15 03:56:52;;;;;;;0.05;0.05;;;;;;;18.57;60.17;100842.56;5064245;28;20048;-83
2022/09/15 03:59:19;;;;;;;0.00;0.00;;;;;;;18.57;60.23;100839.88;5074433;28;20402;-83
2022/09/15 04:01:46;;;;;;;0.10;0.10;;;;;;;18.54;60.27;100838.25;5077071;28;20024;-83
2022/09/15 04:04:13;;;;;;;0.03;0.03;;;;;;;18.49;60.16;100844.78;5072293;28;20028;-82
2022/09/15 04:06:40;;;;;;;0.10;0.10;;;;;;;18.43;60.19;100846.84;5075438;28;20056;-83
2022/09/15 04:09:06;;;;;;;0.00;0.00;;;;;;;18.36;60.28;100841.91;5076416;28;20079;-83
2022/09/15 04:11:33;;;;;;;0.10;0.10;;;;;;;18.29;60.95;100838.66;5078517;28;20032;-82
2022/09/15 04:13:59;;;;;;;0.05;0.05;;;;;;;18.24;60.94;100840.72;5078377;28;20064;-82
2022/09/15 04:16:27;;;;;;;0.20;0.20;;;;;;;18.21;60.68;100847.09;5076721;28;20409;-82
2022/09/15 04:18:54;;;;;;;0.10;0.10;;;;;;;18.16;60.61;100848.31;5076389;28;20116;-83
2022/09/15 04:21:23;;;;;;;0.10;0.10;;;;;;;18.10;60.78;100855.69;5063949;28;20029;-82
2022/09/15 04:23:49;;;;;;;0.10;0.10;;;;;;;18.05;61.08;100855.06;5071228;28;20395;-83
2022/09/15 04:28:52;;;;;;;0.10;0.10;;;;;;;18.02;61.25;100849.88;5071140;28;20390;-81
2022/09/15 04:31:19;;;;;;;0.05;0.05;;;;;;;18.01;61.33;100845.47;5067545;28;20129;-83
2022/09/15 04:33:46;;;;;;;0.10;0.10;;;;;;;18.04;61.09;100844.44;5061516;28;20037;-82
2022/09/15 04:36:15;;;;;;;0.10;0.10;;;;;;;18.07;61.37;100855.00;5049058;28;20075;-83
2022/09/15 04:38:42;;;;;;;0.10;0.10;;;;;;;18.08;61.13;100859.41;5048988;28;20040;-83
2022/09/15 04:41:08;;;;;;;0.10;0.10;;;;;;;18.08;61.84;100852.25;5050202;28;20025;-82
2022/09/15 04:43:34;;;;;;;0.10;0.10;;;;;;;18.04;61.11;100856.00;5052023;28;20031;-82
2022/09/15 04:46:01;;;;;;;0.10;0.10;;;;;;;18.02;60.80;100849.88;5047431;28;20061;-82
2022/09/15 04:48:27;;;;;;;0.00;0.00;;;;;;;18.06;60.15;100859.50;5044538;28;20102;-82
2022/09/15 04:50:53;;;;;;;0.75;0.55;;;;;;;18.17;59.99;100858.06;5049025;28;20037;-82
2022/09/15 04:53:19;;;;;;;0.10;0.10;;;;;;;18.22;59.74;100842.63;5045937;28;20041;-81
2022/09/15 04:55:45;;;;;;;0.10;0.10;;;;;;;18.25;59.53;100842.44;5042482;28;20495;-81
2022/09/15 04:58:12;;;;;;;0.17;0.17;;;;;;;18.30;59.80;100848.44;5039851;28;20030;-81
2022/09/15 05:00:42;;;;;;;0.82;0.82;;;;;;;18.34;59.58;100844.63;5041660;28;20025;-82
2022/09/15 05:03:09;;;;;;;0.00;0.00;;;;;;;18.35;59.52;100840.16;5047190;28;20029;-82
2022/09/15 05:05:35;;;;;;;0.10;0.10;;;;;;;18.35;59.72;100840.16;5041925;28;20029;-81
2022/09/15 05:08:02;;;;;;;0.00;0.00;;;;;;;18.34;59.73;100847.31;5050933;28;20076;-81
2022/09/15 05:10:28;;;;;;;0.10;0.10;;;;;;;18.33;59.22;100845.59;5049849;28;20415;-83
2022/09/15 05:12:54;;;;;;;0.82;0.75;;;;;;;18.37;59.40;100847.19;5048331;28;20025;-83
2022/09/15 05:15:20;;;;;;;0.10;0.10;;;;;;;18.42;59.31;100849.63;5047013;28;20032;-83
2022/09/15 05:17:48;;;;;;;0.10;0.10;;;;;;;18.44;59.28;100850.38;5049909;28;20025;-82
2022/09/15 05:20:14;;;;;;;0.10;0.10;;;;;;;18.48;59.53;100857.34;5045256;28;20627;-79
2022/09/15 05:22:41;;;;;;;0.10;0.10;;;;;;;18.51;59.46;100859.00;5046607;28;20025;-80
2022/09/15 05:25:07;;;;;;;0.30;0.30;;;;;;;18.53;59.71;100851.72;5045120;28;20052;-80
2022/09/15 05:27:33;;;;;;;0.10;0.10;;;;;;;18.53;59.72;100847.22;5047943;28;20044;-81
2022/09/15 05:29:59;;;;;;;0.10;0.10;;;;;;;18.55;59.82;100849.81;5048749;28;20029;-80
2022/09/15 05:32:26;;;;;;;0.10;0.10;;;;;;;18.56;59.75;100851.56;5042010;28;20025;-81
2022/09/15 05:34:52;;;;;;;0.30;0.30;;;;;;;18.54;59.73;100848.97;5040115;28;20044;-78
2022/09/15 05:37:18;;;;;;;0.10;0.10;;;;;;;18.53;59.67;100851.72;5040000;28;20057;-82
2022/09/15 05:39:44;;;;;;;0.00;0.00;;;;;;;18.48;59.73;100857.34;5038479;28;20048;-81
2022/09/15 05:42:12;;;;;;;0.00;0.00;;;;;;;18.43;59.62;100854.91;5030059;28;20041;-81
2022/09/15 05:44:38;;;;;;;0.10;0.10;;;;;;;18.37;59.73;100857.91;5031871;28;20039;-82
2022/09/15 05:47:04;;;;;;;0.10;0.10;;;;;;;18.34;59.82;100857.19;5032288;28;20033;-81
2022/09/15 05:49:30;;;;;;;0.10;0.10;;;;;;;18.31;60.09;100865.41;5032455;28;20029;-79
2022/09/15 05:51:56;;;;;;;0.10;0.10;;;;;;;18.33;60.07;100860.81;5033461;28;20021;-80
2022/09/15 05:54:22;;;;;;;0.10;0.10;;;;;;;18.36;60.26;100855.31;5035780;28;20065;-78
2022/09/15 05:56:48;;;;;;;0.10;0.10;;;;;;;18.38;60.16;100848.91;5037499;28;20032;-81
2022/09/15 05:59:15;;;;;;;0.10;0.10;;;;;;;18.46;60.08;100850.34;5043895;28;20048;-82
2022/09/15 06:01:41;;;;;;;0.10;0.10;;;;;;;18.47;59.94;100852.94;5037751;28;20056;-81
2022/09/15 06:04:07;;;;;;;0.10;0.10;;;;;;;18.48;59.45;100846.63;5030297;28;20029;-82
2022/09/15 06:06:33;;;;;;;0.10;0.10;;;;;;;18.54;59.42;100850.75;5028085;28;20116;-83
2022/09/15 06:09:00;;;;;;;0.05;0.05;;;;;;;18.60;59.49;100858.50;5033966;28;20096;-82
2022/09/15 06:11:28;;;;;;;0.05;0.05;;;;;;;18.69;59.43;100857.13;5038552;28;20026;-82
2022/09/15 06:13:57;;;;;;;0.10;0.10;;;;;;;18.76;59.34;100863.91;5034457;28;20030;-83
2022/09/15 06:16:24;;;;;;;0.10;0.10;;;;;;;18.83;59.38;100865.31;5042954;28;20026;-81
2022/09/15 06:18:51;;;;;;;0.10;0.10;;;;;;;18.89;59.06;100873.03;5037053;28;20028;-80
2022/09/15 06:21:20;;;;;;;0.00;0.00;;;;;;;18.96;59.04;100878.97;5033637;28;20044;-80
2022/09/15 06:23:53;;;;;;;0.00;0.00;;;;;;;19.03;58.51;100877.66;5033659;28;20031;-79
2022/09/15 06:26:20;;;;;;;0.10;0.10;;;;;;;19.03;58.14;100888.41;5021536;28;20030;-79
2022/09/15 06:28:49;;;;;;;0.10;0.10;;;;;;;19.06;57.88;100893.59;5032519;28;20026;-79
2022/09/15 06:31:16;;;;;;;0.10;0.10;;;;;;;19.10;57.75;100893.44;5030877;28;20061;-78
2022/09/15 06:33:45;;;;;;;0.10;0.10;;;;;;;19.14;57.34;100892.31;5028298;28;20059;-80
2022/09/15 06:36:13;;;;;;;0.10;0.10;;;;;;;19.14;56.90;100889.63;5031866;28;20029;-80
2022/09/15 06:38:40;;;;;;;0.00;0.00;;;;;;;19.21;57.59;100891.03;5027323;28;20026;-80
2022/09/15 06:41:07;;;;;;;0.00;0.00;;;;;;;19.24;57.42;100885.50;5029826;28;20036;-78
2022/09/15 06:43:34;;;;;;;0.10;0.10;;;;;;;19.28;57.21;100896.91;5032747;28;20052;-80
2022/09/15 06:46:19;;;;;;;0.10;0.10;;;;;;;19.42;57.36;100893.47;5026495;28;20030;-80
2022/09/15 06:48:45;;;;;;;0.10;0.10;;;;;;;19.40;57.44;100901.59;5029699;28;20037;-80
2022/09/15 06:51:13;;;;;;;0.30;0.30;;;;;;;19.45;57.11;100899.56;5027719;28;20060;-79
2022/09/15 06:53:40;;;;;;;0.13;0.13;;;;;;;19.50;56.83;100893.91;5027739;28;20041;-79
2022/09/15 06:56:09;;;;;;;0.10;0.10;;;;;;;19.58;56.88;100902.41;5028218;28;20322;-81
2022/09/15 06:58:37;;;;;;;0.10;0.10;;;;;;;19.61;56.33;100899.53;5033455;28;20026;-78
2022/09/15 07:01:08;;;;;;;0.00;0.00;;;;;;;19.67;56.50;100901.84;5036811;28;20391;-80
2022/09/15 07:03:36;;;;;;;0.10;0.10;;;;;;;19.70;55.99;100903.50;5033621;28;20084;-80
2022/09/15 07:06:03;;;;;;;0.10;0.10;;;;;;;19.77;56.50;100906.72;5025149;28;20030;-79
2022/09/15 07:08:29;;;;;;;0.00;0.00;;;;;;;19.75;55.67;100916.69;5026030;28;20117;-81
2022/09/15 07:10:55;;;;;;;0.03;0.03;;;;;;;19.80;55.87;100919.97;5031750;28;20573;-80
2022/09/15 07:13:22;;;;;;;0.10;0.10;;;;;;;19.78;54.69;100928.13;5029019;28;20537;-81
2022/09/15 07:15:51;;;;;;;0.10;0.10;;;;;;;19.81;55.63;100933.34;5034712;28;20169;-80
2022/09/15 07:18:17;;;;;;;0.10;0.10;;;;;;;19.85;56.15;100934.03;5034217;28;20402;-81
2022/09/15 07:20:43;;;;;;;0.10;0.10;;;;;;;19.90;56.35;100931.09;5035092;28;20036;-80
2022/09/15 07:23:09;;;;;;;0.10;0.10;;;;;;;19.96;55.33;100941.50;5034476;28;20049;-84
2022/09/15 07:25:35;;;;;;;0.08;0.08;;;;;;;19.98;55.16;100945.84;5031275;28;20530;-80
2022/09/15 07:28:02;;;;;;;0.05;0.05;;;;;;;20.00;54.72;100948.44;5035941;28;20044;-80
2022/09/15 07:30:28;;;;;;;0.10;0.10;;;;;;;19.91;55.08;100951.66;5040195;28;20048;-81
2022/09/15 07:32:54;;;;;;;0.10;0.10;;;;;;;19.78;56.00;100951.47;5030759;28;20042;-79
2022/09/15 07:35:20;;;;;;;0.08;0.08;;;;;;;19.69;56.52;100959.09;5028331;28;20025;-79
2022/09/15 07:37:47;;;;;;;0.10;0.10;;;;;;;19.64;56.86;100952.22;5026022;28;20034;-79
2022/09/15 07:40:14;;;;;;;0.10;0.10;;;;;;;19.58;57.56;100952.56;5030045;28;20108;-78
2022/09/15 07:42:42;;;;;;;0.10;0.10;;;;;;;19.55;57.29;100949.13;5030100;28;20087;-80
2022/09/15 07:45:10;;;;;;;0.08;0.08;;;;;;;19.53;57.11;100952.88;5034570;28;20053;-84
2022/09/15 07:47:36;;;;;;;0.28;0.28;;;;;;;19.50;57.11;100953.91;5035240;28;20088;-80
2022/09/15 07:50:04;;;;;;;0.10;0.10;;;;;;;19.51;57.24;100952.06;5027476;28;20623;-80
2022/09/15 07:52:30;;;;;;;0.10;0.10;;;;;;;19.54;57.03;100951.91;5030655;28;20041;-80
2022/09/15 07:54:56;;;;;;;0.10;0.10;;;;;;;19.61;57.27;100953.28;5023162;28;20029;-80
2022/09/15 07:57:22;;;;;;;0.08;0.08;;;;;;;19.69;57.49;100955.56;5026723;28;20028;-80
2022/09/15 07:59:49;;;;;;;0.10;0.10;;;;;;;19.78;58.33;100964.91;5027811;28;20030;-79
2022/09/15 08:02:20;;;;;;;0.10;0.10;;;;;;;19.95;57.92;100967.53;5028543;28;20032;-80
2022/09/15 08:04:46;;;;;;;0.10;0.10;;;;;;;20.09;57.49;100973.91;5026432;28;20032;-80
2022/09/15 08:07:13;;;;;;;0.08;0.08;;;;;;;20.21;57.28;100967.81;5026693;28;20064;-79
2022/09/15 08:09:39;;;;;;;0.03;0.03;;;;;;;20.32;56.61;100964.50;5025049;28;20037;-80
2022/09/15 08:12:06;;;;;;;0.00;0.00;;;;;;;20.41;56.56;100969.38;5032862;28;20045;-79
2022/09/15 08:14:33;;;;;;;0.10;0.10;;;;;;;20.53;56.84;100970.44;5031440;28;20048;-80
2022/09/15 08:17:01;;;;;;;0.10;0.10;;;;;;;20.63;56.57;100976.16;5033434;28;20037;-79
2022/09/15 08:19:29;;;;;;;0.10;0.10;;;;;;;20.72;56.45;100972.06;5031201;28;20503;-80
2022/09/15 08:21:55;;;;;;;0.10;0.10;;;;;;;20.83;56.24;100978.50;5026458;28;20037;-79
2022/09/15 08:24:22;;;;;;;0.00;0.00;;;;;;;20.94;56.23;100980.56;5030030;28;20603;-80
2022/09/15 08:26:49;;;;;;;0.10;0.10;;;;;;;21.08;56.18;100981.53;5019378;28;20036;-80
2022/09/15 08:29:16;;;;;;;0.00;0.00;;;;;;;21.16;55.40;100982.78;5025788;28;20038;-78
2022/09/15 08:31:43;;;;;;;0.00;0.00;;;;;;;21.19;54.51;100987.13;5026751;28;20056;-79
2022/09/15 08:34:13;;;;;;;0.10;0.10;;;;;;;21.06;52.17;101018.47;5021017;28;20025;-80
2022/09/15 08:36:39;;;;;;;0.00;0.00;;;;;;;20.82;52.56;101014.50;5030137;28;20032;-80
2022/09/15 08:39:06;;;;;;;0.00;0.00;;;;;;;20.49;52.12;101033.50;5025656;28;20122;-80
2022/09/15 08:41:37;;;;;;;0.32;0.32;;;;;;;20.15;52.52;101032.75;5027337;28;20029;-79
2022/09/15 08:46:51;;;;;;;0.00;0.00;;;;;;;19.46;56.63;101045.50;5077641;27;20456;-78
2022/09/15 08:52:03;;;;;;;0.00;0.00;;;;;;;18.99;58.60;101056.03;5059618;28;20396;-80
2022/09/15 08:54:31;;;;;;;0.00;0.00;;;;;;;18.92;57.90;101042.03;5062324;28;20029;-80
2022/09/15 08:56:59;;;;;;;0.10;0.10;;;;;;;18.85;59.66;101054.00;5060496;28;20017;-80
2022/09/15 08:59:32;;;;;;;0.00;0.00;;;;;;;18.86;60.06;101050.38;5067489;28;20090;-80
2022/09/15 09:10:18;;;;;;;0.15;0.15;;;;;;;19.08;57.75;101058.22;5120871;27;20583;-78
2022/09/15 09:13:13;;;;;;;0.10;0.10;;;;;;;19.19;58.19;101059.44;5094558;28;20039;-78
2022/09/15 09:18:45;;;;;;;0.10;0.10;;;;;;;19.33;54.60;101043.47;5072652;28;20383;-78
2022/09/15 09:24:14;;;;;;;0.10;0.10;;;;;;;19.68;53.72;101043.38;5115623;27;20412;-78
2022/09/15 09:26:41;;;;;;;0.10;0.10;;;;;;;19.86;53.88;101041.53;5092182;28;20044;-78
2022/09/15 09:29:17;;;;;;;0.65;0.65;;;;;;;20.01;51.81;101042.50;5093693;28;20031;-77
2022/09/15 09:31:48;;;;;;;0.10;0.10;;;;;;;20.14;52.67;101048.03;5094922;28;20403;-78
2022/09/15 09:36:56;;;;;;;0.10;0.10;;;;;;;20.31;50.79;101052.44;5067189;28;20416;-80
2022/09/15 09:39:22;;;;;;;0.10;0.10;;;;;;;20.48;52.69;101040.69;5056390;28;20064;-80
2022/09/15 09:41:50;;;;;;;0.10;0.10;;;;;;;20.66;52.74;101043.25;5059134;28;20048;-80
2022/09/15 09:44:18;;;;;;;0.10;0.10;;;;;;;20.82;51.55;101035.16;5060364;28;20025;-80
2022/09/15 09:46:45;;;;;;;0.10;0.10;;;;;;;20.89;48.19;101038.38;5060922;28;20045;-79
2022/09/15 09:54:28;;;;;;;0.00;0.00;;;;;;;21.26;48.04;101028.00;5073687;27;20403;-78
2022/09/15 09:57:15;;;;;;;0.17;0.17;;;;;;;21.31;45.90;101021.38;5050815;28;20033;-79
2022/09/15 10:02:23;;;;;;;0.10;0.10;;;;;;;21.44;46.79;101023.31;5011302;28;20487;-78
2022/09/15 10:07:31;;;;;;;0.08;0.08;;;;;;;21.59;47.40;101019.66;5106782;27;20765;-78
2022/09/15 10:10:00;;;;;;;0.00;0.00;;;;;;;21.69;47.79;101016.38;5101586;28;20056;-78
2022/09/15 10:12:38;;;;;;;0.10;0.10;;;;;;;21.77;45.23;101019.44;5112223;28;20443;-79
2022/09/15 10:15:19;;;;;;;0.00;0.00;;;;;;;21.81;45.30;101010.22;5102397;28;20504;-79
2022/09/15 10:17:47;;;;;;;0.10;0.10;;;;;;;21.79;43.02;101017.53;5104516;28;20035;-79
2022/09/15 10:20:37;;;;;;;0.10;0.10;;;;;;;21.93;42.06;101009.41;5100636;28;20478;-79
2022/09/15 10:23:27;;;;;;;0.15;0.15;;;;;;;22.01;43.54;101013.41;5096482;28;20039;-79
2022/09/15 10:26:15;;;;;;;0.00;0.00;;;;;;;22.04;41.42;101005.13;5105799;28;20024;-80
2022/09/15 10:28:42;;;;;;;0.10;0.10;;;;;;;22.18;41.81;101007.78;5091596;28;20020;-80
2022/09/15 10:31:12;;;;;;;0.10;0.10;;;;;;;22.35;43.41;101003.09;5103121;28;20024;-79
2022/09/15 10:33:41;;;;;;;0.10;0.10;;;;;;;22.42;40.31;100999.06;5092974;28;20059;-80
2022/09/15 10:36:22;;;;;;;0.10;0.10;;;;;;;22.38;37.85;101013.69;5105314;28;20027;-81
2022/09/15 10:39:09;;;;;;;0.10;0.10;;;;;;;22.29;37.63;100998.97;5109089;28;20051;-81
2022/09/15 10:41:45;;;;;;;0.10;0.10;;;;;;;22.40;39.43;101000.97;5094942;28;20533;-81
2022/09/15 10:47:33;;;;;;;0.10;0.10;;;;;;;22.49;38.88;101004.88;5103123;27;20741;-78
2022/09/15 10:50:11;;;;;;;0.77;0.73;;;;;;;22.53;40.05;100995.59;5059115;28;20102;-78
2022/09/15 10:52:54;;;;;;;0.10;0.10;;;;;;;22.68;40.28;100990.97;5069053;28;20063;-79
2022/09/15 10:55:34;;;;;;;2.55;1.45;;;;;;;22.81;40.30;100993.72;5067487;28;20017;-79
2022/09/15 11:00:50;;;;;;;0.82;0.80;;;;;;;22.73;36.11;101000.50;5090520;27;20404;-79
2022/09/15 11:08:53;;;;;;;0.10;0.10;;;;;;;22.55;35.09;101021.53;5130091;27;20417;-79
2022/09/15 11:14:31;;;;;;;0.10;0.10;;;;;;;22.52;37.17;101021.75;5094055;27;1197905;-80
2022/09/15 11:20:16;;;;;;;0.10;0.10;;;;;;;22.51;36.78;101021.84;5069588;28;20756;-79
2022/09/15 11:22:50;;;;;;;0.08;0.08;;;;;;;22.46;36.34;101019.47;5065092;28;20037;-79
2022/09/15 11:25:21;;;;;;;0.08;0.08;;;;;;;22.48;36.61;101031.03;5065481;28;20086;-79
2022/09/15 11:27:54;;;;;;;0.10;0.10;;;;;;;22.44;35.46;101027.66;5051190;28;20497;-79
2022/09/15 11:30:24;;;;;;;0.10;0.10;;;;;;;22.46;36.50;101027.56;5059646;28;20032;-79
2022/09/15 11:33:05;;;;;;;0.10;0.10;;;;;;;22.45;36.90;101028.53;5045001;28;20045;-79
2022/09/15 11:38:35;;;;;;;0.10;0.10;;;;;;;22.42;36.47;101031.44;5099214;27;20411;-80
2022/09/15 11:44:10;;;;;;;0.10;0.10;;;;;;;22.45;37.58;101036.63;5106934;27;20400;-84
2022/09/15 11:47:01;;;;;;;0.10;0.10;;;;;;;22.49;37.55;101031.88;5106434;28;20063;-84
2022/09/15 11:49:41;;;;;;;2.35;0.98;;;;;;;22.54;37.80;101041.41;5107231;28;20027;-85
2022/09/15 11:54:57;;;;;;;0.10;0.10;;;;;;;22.34;35.51;101039.16;5092318;27;20368;-79
2022/09/15 11:57:38;;;;;;;0.10;0.10;;;;;;;22.29;35.34;101044.84;5054729;28;20619;-78
2022/09/15 12:00:11;;;;;;;0.10;0.10;;;;;;;22.17;35.50;101038.44;5061882;28;20680;-79
2022/09/15 12:03:07;;;;;;;0.10;0.10;;;;;;;22.30;34.89;101039.34;5059495;28;20059;-79
2022/09/15 12:05:41;;;;;;;0.00;0.00;;;;;;;22.35;36.53;101047.13;5068360;28;20487;-78
2022/09/15 12:10:52;;;;;;;0.10;0.10;;;;;;;22.25;35.70;101046.88;5071683;28;20383;-81
2022/09/15 12:13:21;;;;;;;0.10;0.10;;;;;;;22.29;35.95;101048.44;5072140;28;20036;-81
2022/09/15 12:15:49;;;;;;;0.10;0.10;;;;;;;22.38;36.24;101035.28;5052877;28;20478;-80
2022/09/15 12:21:44;;;;;;;0.10;0.10;;;;;;;22.36;38.29;101046.16;5104627;27;20886;-79
2022/09/15 12:24:37;;;;;;;0.20;0.20;;;;;;;22.25;37.28;101046.88;5070028;28;20033;-81
2022/09/15 12:27:03;;;;;;;0.35;0.35;;;;;;;22.11;37.95;101044.25;5040181;28;20036;-80
2022/09/15 12:29:38;;;;;;;0.43;0.43;;;;;;;22.01;37.83;101048.47;5058619;28;20499;-81
2022/09/15 12:32:25;;;;;;;0.00;0.00;;;;;;;22.19;38.54;101041.03;5046539;28;20043;-81
2022/09/15 12:37:56;;;;;;;0.47;0.47;;;;;;;22.28;38.55;101045.81;5060271;28;20358;-83
2022/09/15 12:43:21;;;;;;;0.10;0.10;;;;;;;22.48;38.87;101041.84;5113249;27;1197748;-79
2022/09/15 12:45:55;;;;;;;0.10;0.10;;;;;;;22.59;37.82;101044.66;5101860;28;20032;-79
2022/09/15 12:48:25;;;;;;;0.10;0.10;;;;;;;22.60;36.66;101053.63;5112004;28;20047;-78
2022/09/15 12:51:00;;;;;;;0.25;0.25;;;;;;;22.50;35.72;101063.31;5111326;28;20039;-78
2022/09/15 12:53:30;;;;;;;0.00;0.00;;;;;;;22.22;34.70;101060.59;5111712;28;20024;-78
2022/09/15 12:56:05;;;;;;;1.85;1.75;;;;;;;22.26;36.34;101055.84;5111064;28;20038;-79
2022/09/15 12:58:39;;;;;;;0.00;0.00;;;;;;;22.13;36.80;101047.69;5122559;28;20027;-77
2022/09/15 13:06:38;;;;;;;0.00;0.00;;;;;;;21.71;38.63;101054.88;5069125;28;20599;-78
2022/09/15 13:11:46;;;;;;;0.10;0.10;;;;;;;21.58;38.64;101063.78;5099461;27;1262110;-78
2022/09/15 13:14:35;;;;;;;0.08;0.08;;;;;;;21.69;39.06;101062.22;5116193;28;20035;-78
2022/09/15 13:17:21;;;;;;;0.10;0.10;;;;;;;21.60;39.20;101060.97;5112389;28;20019;-79